createdAt,value
2017-11-05T00:00:37.919Z,991.64
2017-11-05T00:01:37.909Z,991.64
2017-11-05T00:03:32.346Z,991.63
2017-11-05T00:04:32.288Z,991.61
2017-11-05T00:06:26.666Z,991.62
2017-11-05T00:07:26.654Z,991.60
2017-11-05T00:09:21.067Z,991.59
2017-11-05T00:10:21.005Z,991.58
2017-11-05T00:12:15.385Z,991.57
2017-11-05T00:13:15.379Z,991.57
2017-11-05T00:15:09.789Z,991.55
2017-11-05T00:16:09.734Z,991.54
2017-11-05T00:18:04.098Z,991.56
2017-11-05T00:19:04.096Z,991.56
2017-11-05T00:20:58.559Z,991.54
2017-11-05T00:21:58.539Z,991.55
2017-11-05T00:23:52.808Z,991.50
2017-11-05T00:24:52.801Z,991.51
2017-11-05T00:26:47.225Z,991.49
2017-11-05T00:27:47.169Z,991.45
2017-11-05T00:29:41.539Z,991.45
2017-11-05T00:30:41.531Z,991.47
2017-11-05T00:32:35.940Z,991.42
2017-11-05T00:33:35.887Z,991.42
2017-11-05T00:35:34.417Z,991.41
2017-11-05T00:36:34.354Z,991.44
2017-11-05T00:38:28.831Z,991.35
2017-11-05T00:39:28.721Z,991.39
2017-11-05T00:41:23.090Z,991.32
2017-11-05T00:42:23.086Z,991.32
2017-11-05T00:44:17.566Z,991.32
2017-11-05T00:45:17.450Z,991.33
2017-11-05T00:47:12.107Z,991.31
2017-11-05T00:48:11.804Z,991.28
2017-11-05T00:50:06.253Z,991.29
2017-11-05T00:51:06.162Z,991.30
2017-11-05T00:53:00.617Z,991.29
2017-11-05T00:54:00.517Z,991.30
2017-11-05T00:55:55.117Z,991.28
2017-11-05T00:56:54.879Z,991.30
2017-11-05T00:58:49.262Z,991.26
2017-11-05T00:59:49.260Z,991.30
2017-11-05T01:01:43.697Z,991.35
2017-11-05T01:02:43.619Z,991.33
2017-11-05T01:04:37.984Z,991.38
2017-11-05T01:05:37.975Z,991.38
2017-11-05T01:07:32.431Z,991.36
2017-11-05T01:08:32.333Z,991.32
2017-11-05T01:10:26.701Z,991.34
2017-11-05T01:11:26.690Z,991.35
2017-11-05T01:13:21.142Z,991.35
2017-11-05T01:14:21.040Z,991.33
2017-11-05T01:16:15.409Z,991.28
2017-11-05T01:17:15.403Z,991.27
2017-11-05T01:19:09.865Z,991.26
2017-11-05T01:20:09.766Z,991.26
2017-11-05T01:22:04.136Z,991.22
2017-11-05T01:23:04.128Z,991.21
2017-11-05T01:24:57.554Z,991.21
2017-11-05T01:25:57.512Z,991.23
2017-11-05T01:27:51.943Z,991.19
2017-11-05T01:28:51.885Z,991.24
2017-11-05T01:30:46.244Z,991.24
2017-11-05T01:31:46.235Z,991.22
2017-11-05T01:33:40.773Z,991.21
2017-11-05T01:34:40.600Z,991.18
2017-11-05T01:36:34.966Z,991.16
2017-11-05T01:37:34.958Z,991.17
2017-11-05T01:39:29.368Z,991.17
2017-11-05T01:40:29.311Z,991.22
2017-11-05T01:42:23.683Z,991.14
2017-11-05T01:43:23.687Z,991.19
2017-11-05T01:45:18.103Z,991.16
2017-11-05T01:46:18.037Z,991.14
2017-11-05T01:48:12.405Z,991.14
2017-11-05T01:49:12.445Z,991.14
2017-11-05T01:51:06.860Z,991.12
2017-11-05T01:52:06.751Z,991.14
2017-11-05T01:54:01.192Z,991.15
2017-11-05T01:55:01.112Z,991.15
2017-11-05T01:56:55.535Z,991.14
2017-11-05T01:57:55.480Z,991.15
2017-11-05T01:59:49.864Z,991.18
2017-11-05T02:00:49.829Z,991.15
2017-11-05T02:02:44.300Z,991.11
2017-11-05T02:03:44.190Z,991.12
2017-11-05T02:05:38.608Z,991.14
2017-11-05T02:06:38.549Z,991.11
2017-11-05T02:08:32.916Z,991.07
2017-11-05T02:09:32.908Z,991.04
2017-11-05T02:11:27.315Z,991.03
2017-11-05T02:12:27.260Z,991.03
2017-11-05T02:14:21.627Z,990.95
2017-11-05T02:15:21.622Z,990.94
2017-11-05T02:17:16.060Z,990.94
2017-11-05T02:18:15.997Z,990.98
2017-11-05T02:20:10.382Z,990.94
2017-11-05T02:21:10.367Z,990.86
2017-11-05T02:23:04.842Z,990.83
2017-11-05T02:24:04.728Z,990.84
2017-11-05T02:25:59.092Z,990.80
2017-11-05T02:26:59.091Z,990.78
2017-11-05T02:28:53.506Z,990.82
2017-11-05T02:29:53.447Z,990.82
2017-11-05T02:31:47.807Z,990.79
2017-11-05T02:32:47.803Z,990.77
2017-11-05T02:34:42.222Z,990.76
2017-11-05T02:35:42.170Z,990.80
2017-11-05T02:37:36.531Z,990.73
2017-11-05T02:38:36.522Z,990.67
2017-11-05T02:40:31.017Z,990.68
2017-11-05T02:41:30.902Z,990.68
2017-11-05T02:43:25.275Z,990.61
2017-11-05T02:44:25.265Z,990.58
2017-11-05T02:46:19.681Z,990.54
2017-11-05T02:47:19.624Z,990.57
2017-11-05T02:49:13.993Z,990.58
2017-11-05T02:50:13.988Z,990.57
2017-11-05T02:52:08.406Z,990.52
2017-11-05T02:53:08.349Z,990.52
2017-11-05T02:55:02.707Z,990.55
2017-11-05T02:56:02.701Z,990.53
2017-11-05T02:57:57.169Z,990.49
2017-11-05T02:58:57.057Z,990.50
2017-11-05T03:00:51.426Z,990.42
2017-11-05T03:01:51.424Z,990.43
2017-11-05T03:03:45.835Z,990.42
2017-11-05T03:04:45.781Z,990.44
2017-11-05T03:06:40.152Z,990.41
2017-11-05T03:07:40.140Z,990.43
2017-11-05T03:09:34.886Z,990.37
2017-11-05T03:10:34.500Z,990.38
2017-11-05T03:12:28.888Z,990.42
2017-11-05T03:13:28.866Z,990.35
2017-11-05T03:15:23.292Z,990.32
2017-11-05T03:16:23.232Z,990.31
2017-11-05T03:18:17.593Z,990.27
2017-11-05T03:19:17.582Z,990.25
2017-11-05T03:21:12.001Z,990.21
2017-11-05T03:22:12.054Z,990.19
2017-11-05T03:24:06.300Z,990.20
2017-11-05T03:25:06.293Z,990.17
2017-11-05T03:27:00.744Z,990.20
2017-11-05T03:28:00.643Z,990.19
2017-11-05T03:29:55.019Z,990.14
2017-11-05T03:30:55.007Z,990.20
2017-11-05T03:32:49.463Z,990.10
2017-11-05T03:33:49.368Z,990.10
2017-11-05T03:35:43.735Z,990.03
2017-11-05T03:36:43.729Z,990.00
2017-11-05T03:38:38.149Z,989.94
2017-11-05T03:39:38.096Z,989.94
2017-11-05T03:41:32.458Z,989.92
2017-11-05T03:42:32.447Z,989.85
2017-11-05T03:44:26.931Z,989.87
2017-11-05T03:45:26.806Z,989.84
2017-11-05T03:47:21.173Z,989.90
2017-11-05T03:48:21.165Z,989.93
2017-11-05T03:50:15.575Z,989.94
2017-11-05T03:51:15.524Z,989.99
2017-11-05T03:53:09.982Z,990.01
2017-11-05T03:54:09.888Z,990.03
2017-11-05T03:56:04.343Z,990.08
2017-11-05T03:57:04.250Z,990.05
2017-11-05T03:58:58.663Z,990.04
2017-11-05T03:59:58.609Z,990.07
2017-11-05T04:01:52.977Z,989.98
2017-11-05T04:02:52.974Z,990.00
2017-11-05T04:04:47.429Z,989.96
2017-11-05T04:05:47.322Z,989.96
2017-11-05T04:07:41.741Z,989.88
2017-11-05T04:08:41.687Z,989.91
2017-11-05T04:10:36.053Z,989.90
2017-11-05T04:11:36.050Z,989.86
2017-11-05T04:13:30.841Z,989.88
2017-11-05T04:14:30.414Z,989.85
2017-11-05T04:16:24.796Z,989.81
2017-11-05T04:17:24.780Z,989.77
2017-11-05T04:19:19.188Z,989.76
2017-11-05T04:20:19.134Z,989.77
2017-11-05T04:22:13.589Z,989.76
2017-11-05T04:23:13.487Z,989.73
2017-11-05T04:25:07.858Z,989.75
2017-11-05T04:26:07.846Z,989.76
2017-11-05T04:28:02.747Z,989.79
2017-11-05T04:29:02.207Z,989.78
2017-11-05T04:30:56.628Z,989.69
2017-11-05T04:31:56.568Z,989.72
2017-11-05T04:33:50.933Z,989.75
2017-11-05T04:34:50.925Z,989.83
2017-11-05T04:36:45.341Z,989.80
2017-11-05T04:37:45.289Z,989.82
2017-11-05T04:39:39.749Z,989.79
2017-11-05T04:40:39.646Z,989.85
2017-11-05T04:42:34.017Z,989.76
2017-11-05T04:43:34.009Z,989.76
2017-11-05T04:45:28.430Z,989.75
2017-11-05T04:46:28.373Z,989.76
2017-11-05T04:48:22.741Z,989.75
2017-11-05T04:49:22.736Z,989.69
2017-11-05T04:51:17.150Z,989.66
2017-11-05T04:52:17.173Z,989.71
2017-11-05T04:54:11.453Z,989.65
2017-11-05T04:55:11.445Z,989.70
2017-11-05T04:57:05.906Z,989.73
2017-11-05T04:58:05.813Z,989.74
2017-11-05T05:00:00.215Z,989.74
2017-11-05T05:01:00.159Z,989.69
2017-11-05T05:02:54.529Z,989.73
2017-11-05T05:03:54.519Z,989.69
2017-11-05T05:05:48.893Z,989.66
2017-11-05T05:06:48.885Z,989.62
2017-11-05T05:08:43.299Z,989.59
2017-11-05T05:09:43.244Z,989.60
2017-11-05T05:11:37.671Z,989.55
2017-11-05T05:12:37.618Z,989.50
2017-11-05T05:14:31.963Z,989.50
2017-11-05T05:15:31.955Z,989.48
2017-11-05T05:17:26.425Z,989.47
2017-11-05T05:18:26.313Z,989.49
2017-11-05T05:20:20.671Z,989.53
2017-11-05T05:21:20.666Z,989.54
2017-11-05T05:23:15.082Z,989.54
2017-11-05T05:24:15.027Z,989.56
2017-11-05T05:26:09.383Z,989.50
2017-11-05T05:27:09.378Z,989.49
2017-11-05T05:29:03.794Z,989.46
2017-11-05T05:30:03.744Z,989.45
2017-11-05T05:31:58.090Z,989.46
2017-11-05T05:32:58.085Z,989.47
2017-11-05T05:34:52.816Z,989.41
2017-11-05T05:35:52.444Z,989.46
2017-11-05T05:37:46.818Z,989.45
2017-11-05T05:38:46.807Z,989.50
2017-11-05T05:40:41.215Z,989.51
2017-11-05T05:41:41.159Z,989.53
2017-11-05T05:43:35.529Z,989.47
2017-11-05T05:44:35.522Z,989.46
2017-11-05T05:46:29.940Z,989.51
2017-11-05T05:47:29.884Z,989.51
2017-11-05T05:49:24.257Z,989.41
2017-11-05T05:50:24.248Z,989.42
2017-11-05T05:52:18.996Z,989.42
2017-11-05T05:53:18.613Z,989.48
2017-11-05T05:55:12.983Z,989.39
2017-11-05T05:56:12.976Z,989.39
2017-11-05T05:58:07.397Z,989.44
2017-11-05T05:59:07.336Z,989.45
2017-11-05T06:01:01.711Z,989.41
2017-11-05T06:02:01.703Z,989.34
2017-11-05T06:03:56.114Z,989.35
2017-11-05T06:04:56.061Z,989.35
2017-11-05T06:06:54.634Z,989.40
2017-11-05T06:07:54.628Z,989.36
2017-11-05T06:09:49.098Z,989.35
2017-11-05T06:10:48.990Z,989.35
2017-11-05T06:12:43.353Z,989.36
2017-11-05T06:13:43.346Z,989.40
2017-11-05T06:15:37.762Z,989.42
2017-11-05T06:16:37.710Z,989.36
2017-11-05T06:18:36.801Z,989.36
2017-11-05T06:19:36.793Z,989.33
2017-11-05T06:21:31.203Z,989.36
2017-11-05T06:22:31.156Z,989.42
2017-11-05T06:24:25.521Z,989.40
2017-11-05T06:25:25.514Z,989.34
2017-11-05T06:27:19.971Z,989.35
2017-11-05T06:28:19.890Z,989.32
2017-11-05T06:30:14.245Z,989.35
2017-11-05T06:31:14.240Z,989.36
2017-11-05T06:33:08.663Z,989.35
2017-11-05T06:34:08.602Z,989.36
2017-11-05T06:36:02.982Z,989.41
2017-11-05T06:37:02.988Z,989.47
2017-11-05T06:38:57.376Z,989.49
2017-11-05T06:39:57.324Z,989.52
2017-11-05T06:41:51.781Z,989.53
2017-11-05T06:42:51.686Z,989.60
2017-11-05T06:44:46.058Z,989.58
2017-11-05T06:45:46.039Z,989.65
2017-11-05T06:47:40.487Z,989.71
2017-11-05T06:48:40.390Z,989.70
2017-11-05T06:50:34.762Z,989.70
2017-11-05T06:51:34.760Z,989.69
2017-11-05T06:53:29.173Z,989.72
2017-11-05T06:54:29.116Z,989.76
2017-11-05T06:56:23.511Z,989.72
2017-11-05T06:57:23.490Z,989.73
2017-11-05T06:59:17.912Z,989.74
2017-11-05T07:00:17.853Z,989.76
2017-11-05T07:02:12.214Z,989.75
2017-11-05T07:03:12.205Z,989.74
2017-11-05T07:05:06.658Z,989.71
2017-11-05T07:06:06.570Z,989.73
2017-11-05T07:08:00.981Z,989.73
2017-11-05T07:09:00.926Z,989.74
2017-11-05T07:10:55.320Z,989.71
2017-11-05T07:11:55.287Z,989.70
2017-11-05T07:13:49.887Z,989.70
2017-11-05T07:14:49.657Z,989.71
2017-11-05T07:16:44.078Z,989.71
2017-11-05T07:17:44.021Z,989.70
2017-11-05T07:19:38.395Z,989.76
2017-11-05T07:20:38.387Z,989.66
2017-11-05T07:22:32.859Z,989.62
2017-11-05T07:23:32.750Z,989.61
2017-11-05T07:25:27.125Z,989.56
2017-11-05T07:26:27.117Z,989.55
2017-11-05T07:28:21.536Z,989.56
2017-11-05T07:29:21.482Z,989.53
2017-11-05T07:31:15.850Z,989.53
2017-11-05T07:32:15.907Z,989.58
2017-11-05T07:34:10.255Z,989.57
2017-11-05T07:35:10.200Z,989.56
2017-11-05T07:37:04.567Z,989.58
2017-11-05T07:38:04.561Z,989.60
2017-11-05T07:39:59.021Z,989.62
2017-11-05T07:40:58.921Z,989.60
2017-11-05T07:42:53.339Z,989.54
2017-11-05T07:43:53.292Z,989.56
2017-11-05T07:45:47.655Z,989.50
2017-11-05T07:46:47.649Z,989.42
2017-11-05T07:48:42.069Z,989.47
2017-11-05T07:49:42.013Z,989.46
2017-11-05T07:51:36.377Z,989.40
2017-11-05T07:52:36.369Z,989.41
2017-11-05T07:54:30.785Z,989.36
2017-11-05T07:55:30.740Z,989.36
2017-11-05T07:57:25.234Z,989.28
2017-11-05T07:58:25.108Z,989.25
2017-11-05T08:00:19.468Z,989.12
2017-11-05T08:01:19.462Z,989.11
2017-11-05T08:03:13.886Z,989.16
2017-11-05T08:04:13.829Z,989.14
2017-11-05T08:06:08.191Z,989.18
2017-11-05T08:07:08.185Z,989.15
2017-11-05T08:09:01.591Z,989.18
2017-11-05T08:10:01.540Z,989.14
2017-11-05T08:11:55.901Z,989.06
2017-11-05T08:12:55.896Z,989.10
2017-11-05T08:14:50.369Z,989.02
2017-11-05T08:15:50.265Z,989.07
2017-11-05T08:17:44.633Z,989.06
2017-11-05T08:18:44.627Z,989.11
2017-11-05T08:20:39.041Z,989.09
2017-11-05T08:21:38.985Z,989.17
2017-11-05T08:23:33.407Z,989.15
2017-11-05T08:24:33.352Z,989.09
2017-11-05T08:26:27.722Z,989.09
2017-11-05T08:27:27.716Z,989.10
2017-11-05T08:29:22.312Z,989.17
2017-11-05T08:30:22.084Z,989.16
2017-11-05T08:32:16.452Z,989.19
2017-11-05T08:33:16.445Z,989.24
2017-11-05T08:35:11.540Z,989.27
2017-11-05T08:36:10.813Z,989.22
2017-11-05T08:38:05.236Z,989.24
2017-11-05T08:39:05.181Z,989.25
2017-11-05T08:40:59.552Z,989.26
2017-11-05T08:41:59.591Z,989.28
2017-11-05T08:43:53.976Z,989.23
2017-11-05T08:44:53.914Z,989.14
2017-11-05T08:46:48.275Z,989.08
2017-11-05T08:47:48.270Z,989.06
2017-11-05T08:49:42.694Z,989.02
2017-11-05T08:50:42.640Z,989.00
2017-11-05T08:52:37.010Z,988.97
2017-11-05T08:53:37.005Z,988.95
2017-11-05T08:55:31.460Z,988.92
2017-11-05T08:56:31.361Z,988.85
2017-11-05T08:58:25.785Z,988.82
2017-11-05T08:59:25.786Z,988.81
2017-11-05T09:01:20.094Z,988.79
2017-11-05T09:02:20.104Z,988.73
2017-11-05T09:04:14.504Z,988.71
2017-11-05T09:05:14.453Z,988.70
2017-11-05T09:07:08.919Z,988.69
2017-11-05T09:08:08.817Z,988.70
2017-11-05T09:10:03.182Z,988.74
2017-11-05T09:11:03.187Z,988.68
2017-11-05T09:12:57.594Z,988.71
2017-11-05T09:13:57.607Z,988.70
2017-11-05T09:15:51.910Z,988.76
2017-11-05T09:16:51.979Z,988.77
2017-11-05T09:18:46.314Z,988.77
2017-11-05T09:19:46.263Z,988.83
2017-11-05T09:21:40.642Z,988.92
2017-11-05T09:22:40.631Z,988.94
2017-11-05T09:24:35.104Z,988.90
2017-11-05T09:25:35.001Z,988.94
2017-11-05T09:27:29.383Z,988.87
2017-11-05T09:28:29.373Z,988.90
2017-11-05T09:30:24.004Z,988.87
2017-11-05T09:31:23.741Z,988.90
2017-11-05T09:33:18.106Z,988.89
2017-11-05T09:34:18.100Z,988.86
2017-11-05T09:36:12.513Z,988.91
2017-11-05T09:37:12.458Z,988.88
2017-11-05T09:39:06.822Z,988.96
2017-11-05T09:40:06.818Z,988.86
2017-11-05T09:42:01.473Z,988.82
2017-11-05T09:43:01.201Z,988.85
2017-11-05T09:44:55.574Z,988.77
2017-11-05T09:45:55.573Z,988.77
2017-11-05T09:47:50.034Z,988.75
2017-11-05T09:48:49.939Z,988.73
2017-11-05T09:50:44.313Z,988.73
2017-11-05T09:51:44.313Z,988.71
2017-11-05T09:53:38.733Z,988.73
2017-11-05T09:54:38.681Z,988.79
2017-11-05T09:56:33.048Z,988.84
2017-11-05T09:57:33.041Z,988.85
2017-11-05T09:59:27.469Z,988.91
2017-11-05T10:00:27.409Z,988.92
2017-11-05T10:02:21.789Z,988.92
2017-11-05T10:03:21.789Z,988.95
2017-11-05T10:05:16.279Z,988.92
2017-11-05T10:06:16.144Z,988.88
2017-11-05T10:08:10.534Z,988.88
2017-11-05T10:09:10.523Z,988.82
2017-11-05T10:11:05.627Z,988.80
2017-11-05T10:12:04.896Z,988.83
2017-11-05T10:13:59.324Z,988.86
2017-11-05T10:14:59.266Z,988.87
2017-11-05T10:16:53.640Z,988.84
2017-11-05T10:17:53.636Z,988.77
2017-11-05T10:19:48.080Z,988.80
2017-11-05T10:20:48.001Z,988.80
2017-11-05T10:22:42.377Z,988.76
2017-11-05T10:23:42.370Z,988.72
2017-11-05T10:25:36.940Z,988.66
2017-11-05T10:26:36.736Z,988.70
2017-11-05T10:28:31.102Z,988.67
2017-11-05T10:29:31.237Z,988.68
2017-11-05T10:31:25.522Z,988.63
2017-11-05T10:32:25.531Z,988.63
2017-11-05T10:34:19.845Z,988.66
2017-11-05T10:35:19.842Z,988.70
2017-11-05T10:37:14.301Z,988.63
2017-11-05T10:38:14.253Z,988.66
2017-11-05T10:40:08.580Z,988.69
2017-11-05T10:41:08.575Z,988.69
2017-11-05T10:43:02.987Z,988.61
2017-11-05T10:44:02.940Z,988.68
2017-11-05T10:45:57.356Z,988.63
2017-11-05T10:46:57.309Z,988.66
2017-11-05T10:48:51.734Z,988.54
2017-11-05T10:49:51.681Z,988.53
2017-11-05T10:51:46.060Z,988.52
2017-11-05T10:52:46.056Z,988.56
2017-11-05T10:54:40.530Z,988.54
2017-11-05T10:55:40.429Z,988.51
2017-11-05T10:57:34.814Z,988.46
2017-11-05T10:58:34.805Z,988.48
2017-11-05T11:00:29.244Z,988.44
2017-11-05T11:01:29.176Z,988.45
2017-11-05T11:02:29.176Z,988.41
2017-11-05T11:03:29.180Z,988.42
2017-11-05T11:04:29.177Z,988.43
2017-11-05T11:05:29.176Z,988.41
2017-11-05T11:06:29.174Z,988.38
2017-11-05T11:07:29.175Z,988.35
2017-11-05T11:08:29.175Z,988.26
2017-11-05T11:09:29.178Z,988.25
2017-11-05T11:10:29.175Z,988.20
2017-11-05T11:11:29.174Z,988.27
2017-11-05T11:12:29.176Z,988.30
2017-11-05T11:13:29.185Z,988.36
2017-11-05T11:14:29.181Z,988.34
2017-11-05T11:15:29.175Z,988.33
2017-11-05T11:16:31.740Z,988.32
2017-11-05T11:17:29.176Z,988.33
2017-11-05T11:18:29.175Z,988.35
2017-11-05T11:19:29.175Z,988.36
2017-11-05T11:20:29.189Z,988.34
2017-11-05T11:21:29.174Z,988.31
2017-11-05T11:22:29.197Z,988.37
2017-11-05T11:23:29.175Z,988.28
2017-11-05T11:24:29.177Z,988.28
2017-11-05T11:25:29.175Z,988.33
2017-11-05T11:26:29.176Z,988.23
2017-11-05T11:27:29.174Z,988.21
2017-11-05T11:28:29.176Z,988.23
2017-11-05T11:29:29.176Z,988.21
2017-11-05T11:30:29.179Z,988.16
2017-11-05T11:31:29.178Z,988.13
2017-11-05T11:32:29.179Z,988.14
2017-11-05T11:33:29.177Z,988.15
2017-11-05T11:34:29.178Z,988.13
2017-11-05T11:35:29.181Z,988.15
2017-11-05T11:36:29.177Z,988.19
2017-11-05T11:37:29.180Z,988.15
2017-11-05T11:38:29.180Z,988.12
2017-11-05T11:39:29.179Z,988.08
2017-11-05T11:40:29.186Z,988.10
2017-11-05T11:41:29.202Z,988.13
2017-11-05T11:42:29.183Z,988.12
2017-11-05T11:43:29.181Z,988.08
2017-11-05T11:44:29.183Z,988.12
2017-11-05T11:45:29.183Z,988.05
2017-11-05T11:46:29.185Z,988.10
2017-11-05T11:47:29.185Z,988.07
2017-11-05T11:48:29.185Z,988.06
2017-11-05T11:49:29.190Z,988.12
2017-11-05T11:50:29.185Z,988.06
2017-11-05T11:51:29.186Z,988.09
2017-11-05T11:52:29.186Z,988.10
2017-11-05T11:53:29.186Z,988.13
2017-11-05T11:54:29.187Z,988.14
2017-11-05T11:55:29.186Z,988.13
2017-11-05T11:56:29.188Z,988.08
2017-11-05T11:57:29.188Z,988.11
2017-11-05T11:58:29.188Z,988.06
2017-11-05T11:59:29.189Z,988.06
2017-11-05T12:00:29.190Z,988.08
2017-11-05T12:01:29.189Z,987.99
2017-11-05T12:02:29.198Z,987.97
2017-11-05T12:03:29.189Z,987.94
2017-11-05T12:04:29.190Z,987.93
2017-11-05T12:05:29.191Z,987.88
2017-11-05T12:06:29.191Z,987.92
2017-11-05T12:07:29.195Z,987.98
2017-11-05T12:08:29.201Z,987.95
2017-11-05T12:09:29.193Z,987.99
2017-11-05T12:10:29.197Z,988.01
2017-11-05T12:11:29.198Z,988.02
2017-11-05T12:12:29.200Z,988.06
2017-11-05T12:13:29.206Z,988.12
2017-11-05T12:14:29.200Z,988.06
2017-11-05T12:15:29.199Z,988.03
2017-11-05T12:16:29.223Z,988.05
2017-11-05T12:17:30.233Z,988.10
2017-11-05T12:18:30.245Z,988.07
2017-11-05T12:19:29.205Z,988.05
2017-11-05T12:20:29.198Z,988.07
2017-11-05T12:21:29.198Z,988.04
2017-11-05T12:22:29.199Z,988.08
2017-11-05T12:23:29.199Z,988.07
2017-11-05T12:24:29.199Z,988.07
2017-11-05T12:25:29.237Z,988.06
2017-11-05T12:26:29.213Z,988.08
2017-11-05T12:27:29.199Z,988.08
2017-11-05T12:28:29.201Z,988.11
2017-11-05T12:29:29.204Z,988.12
2017-11-05T12:30:29.200Z,988.12
2017-11-05T12:31:29.223Z,988.06
2017-11-05T12:32:29.213Z,988.08
2017-11-05T12:33:29.204Z,988.09
2017-11-05T12:34:29.206Z,988.10
2017-11-05T12:35:29.223Z,988.10
2017-11-05T12:36:29.218Z,988.15
2017-11-05T12:37:29.226Z,988.14
2017-11-05T12:38:29.265Z,988.17
2017-11-05T12:39:29.209Z,988.11
2017-11-05T12:40:29.219Z,988.18
2017-11-05T12:41:29.227Z,988.21
2017-11-05T12:42:29.206Z,988.23
2017-11-05T12:43:29.261Z,988.27
2017-11-05T12:44:29.250Z,988.24
2017-11-05T12:45:29.206Z,988.26
2017-11-05T12:46:29.205Z,988.28
2017-11-05T12:47:29.210Z,988.30
2017-11-05T12:48:29.206Z,988.40
2017-11-05T12:49:29.205Z,988.34
2017-11-05T12:50:29.208Z,988.33
2017-11-05T12:51:29.207Z,988.32
2017-11-05T12:52:29.250Z,988.29
2017-11-05T12:53:29.219Z,988.34
2017-11-05T12:54:29.206Z,988.29
2017-11-05T12:55:29.206Z,988.32
2017-11-05T12:56:29.213Z,988.35
2017-11-05T12:57:29.232Z,988.31
2017-11-05T12:58:29.206Z,988.32
2017-11-05T12:59:29.206Z,988.35
2017-11-05T13:00:29.206Z,988.33
2017-11-05T13:01:29.207Z,988.33
2017-11-05T13:02:29.209Z,988.35
2017-11-05T13:03:29.206Z,988.37
2017-11-05T13:04:29.206Z,988.32
2017-11-05T13:05:29.209Z,988.40
2017-11-05T13:06:29.207Z,988.35
2017-11-05T13:07:29.206Z,988.40
2017-11-05T13:08:29.208Z,988.40
2017-11-05T13:09:29.207Z,988.39
2017-11-05T13:10:29.207Z,988.41
2017-11-05T13:11:29.205Z,988.48
2017-11-05T13:12:29.205Z,988.52
2017-11-05T13:13:29.212Z,988.54
2017-11-05T13:14:29.208Z,988.56
2017-11-05T13:15:29.205Z,988.55
2017-11-05T13:16:29.205Z,988.62
2017-11-05T13:17:29.480Z,988.64
2017-11-05T13:18:29.239Z,988.61
2017-11-05T13:19:29.235Z,988.64
2017-11-05T13:20:29.262Z,988.66
2017-11-05T13:21:30.205Z,988.66
2017-11-05T13:22:29.217Z,988.61
2017-11-05T13:23:29.220Z,988.66
2017-11-05T13:24:29.234Z,988.69
2017-11-05T13:25:29.218Z,988.68
2017-11-05T13:26:29.218Z,988.66
2017-11-05T13:27:29.212Z,988.68
2017-11-05T13:28:29.216Z,988.76
2017-11-05T13:29:29.216Z,988.74
2017-11-05T13:30:29.213Z,988.82
2017-11-05T13:31:29.212Z,988.81
2017-11-05T13:32:29.262Z,988.80
2017-11-05T13:33:29.301Z,988.84
2017-11-05T13:34:29.207Z,988.89
2017-11-05T13:35:29.191Z,988.95
2017-11-05T13:36:29.192Z,988.92
2017-11-05T13:37:29.188Z,988.91
2017-11-05T13:38:29.208Z,988.94
2017-11-05T13:39:29.187Z,988.95
2017-11-05T13:40:29.187Z,988.92
2017-11-05T13:41:29.185Z,988.99
2017-11-05T13:42:29.185Z,988.97
2017-11-05T13:43:29.186Z,988.94
2017-11-05T13:44:29.183Z,988.98
2017-11-05T13:45:29.180Z,989.00
2017-11-05T13:46:29.180Z,989.04
2017-11-05T13:47:29.184Z,989.02
2017-11-05T13:48:29.179Z,989.08
2017-11-05T13:49:29.176Z,989.02
2017-11-05T13:50:29.175Z,989.09
2017-11-05T13:51:29.173Z,989.08
2017-11-05T13:52:29.173Z,989.13
2017-11-05T13:53:29.170Z,989.17
2017-11-05T13:54:29.169Z,989.18
2017-11-05T13:55:29.167Z,989.15
2017-11-05T13:56:29.165Z,989.20
2017-11-05T13:57:29.165Z,989.23
2017-11-05T13:58:29.164Z,989.22
2017-11-05T13:59:29.164Z,989.20
2017-11-05T14:00:29.161Z,989.19
2017-11-05T14:01:29.191Z,989.27
2017-11-05T14:02:29.159Z,989.32
2017-11-05T14:03:29.158Z,989.27
2017-11-05T14:04:29.174Z,989.26
2017-11-05T14:05:29.156Z,989.28
2017-11-05T14:06:29.152Z,989.34
2017-11-05T14:07:29.150Z,989.31
2017-11-05T14:08:29.152Z,989.40
2017-11-05T14:09:29.148Z,989.36
2017-11-05T14:10:29.146Z,989.37
2017-11-05T14:11:29.143Z,989.41
2017-11-05T14:12:29.144Z,989.43
2017-11-05T14:13:29.142Z,989.49
2017-11-05T14:14:29.139Z,989.47
2017-11-05T14:15:29.137Z,989.51
2017-11-05T14:16:29.137Z,989.55
2017-11-05T14:17:29.132Z,989.56
2017-11-05T14:18:29.132Z,989.57
2017-11-05T14:19:29.130Z,989.60
2017-11-05T14:20:29.131Z,989.65
2017-11-05T14:21:29.126Z,989.68
2017-11-05T14:22:29.125Z,989.65
2017-11-05T14:23:29.122Z,989.74
2017-11-05T14:24:29.122Z,989.86
2017-11-05T14:25:29.120Z,989.88
2017-11-05T14:26:29.117Z,989.97
2017-11-05T14:27:29.119Z,989.94
2017-11-05T14:28:29.114Z,989.89
2017-11-05T14:29:29.113Z,989.91
2017-11-05T14:30:29.111Z,989.86
2017-11-05T14:31:29.108Z,989.93
2017-11-05T14:32:29.111Z,989.93
2017-11-05T14:33:29.104Z,990.15
2017-11-05T14:34:29.106Z,990.19
2017-11-05T14:35:29.101Z,990.18
2017-11-05T14:36:29.104Z,990.10
2017-11-05T14:37:29.097Z,990.19
2017-11-05T14:38:29.093Z,990.30
2017-11-05T14:39:29.097Z,990.38
2017-11-05T14:40:29.090Z,990.38
2017-11-05T14:41:29.085Z,990.44
2017-11-05T14:42:29.132Z,990.47
2017-11-05T14:43:29.081Z,990.54
2017-11-05T14:44:29.078Z,990.55
2017-11-05T14:45:29.076Z,990.70
2017-11-05T14:46:29.073Z,990.68
2017-11-05T14:47:29.071Z,990.67
2017-11-05T14:48:29.068Z,990.67
2017-11-05T14:49:29.064Z,990.67
2017-11-05T14:50:29.063Z,990.69
2017-11-05T14:51:29.058Z,990.66
2017-11-05T14:52:29.055Z,990.75
2017-11-05T14:53:29.051Z,990.80
2017-11-05T14:54:29.050Z,990.72
2017-11-05T14:55:29.336Z,990.82
2017-11-05T14:56:29.045Z,990.83
2017-11-05T14:57:29.048Z,990.86
2017-11-05T14:58:29.037Z,990.75
2017-11-05T14:59:29.037Z,990.85
2017-11-05T15:00:29.031Z,990.85
2017-11-05T15:01:29.027Z,990.84
2017-11-05T15:02:29.025Z,990.87
2017-11-05T15:03:29.021Z,990.90
2017-11-05T15:04:29.448Z,991.00
2017-11-05T15:05:29.014Z,990.93
2017-11-05T15:06:29.011Z,990.96
2017-11-05T15:07:29.007Z,990.89
2017-11-05T15:08:29.009Z,990.85
2017-11-05T15:09:29.002Z,990.89
2017-11-05T15:10:28.998Z,991.02
2017-11-05T15:11:28.993Z,990.96
2017-11-05T15:12:28.989Z,991.03
2017-11-05T15:13:28.987Z,991.07
2017-11-05T15:14:28.987Z,991.07
2017-11-05T15:15:28.983Z,991.12
2017-11-05T15:16:28.976Z,991.17
2017-11-05T15:17:28.972Z,991.20
2017-11-05T15:18:28.971Z,991.16
2017-11-05T15:19:28.972Z,991.23
2017-11-05T15:20:28.962Z,991.25
2017-11-05T15:21:28.956Z,991.28
2017-11-05T15:22:28.955Z,991.34
2017-11-05T15:23:28.960Z,991.38
2017-11-05T15:24:28.986Z,991.36
2017-11-05T15:25:28.947Z,991.35
2017-11-05T15:26:28.939Z,991.43
2017-11-05T15:27:28.937Z,991.44
2017-11-05T15:28:28.939Z,991.44
2017-11-05T15:29:28.928Z,991.43
2017-11-05T15:30:28.925Z,991.52
2017-11-05T15:31:28.923Z,991.58
2017-11-05T15:32:28.917Z,991.64
2017-11-05T15:33:28.912Z,991.62
2017-11-05T15:34:28.909Z,991.64
2017-11-05T15:35:28.907Z,991.63
2017-11-05T15:36:28.901Z,991.71
2017-11-05T15:37:28.899Z,991.72
2017-11-05T15:38:28.897Z,991.73
2017-11-05T15:39:28.889Z,991.76
2017-11-05T15:40:28.887Z,991.84
2017-11-05T15:41:28.882Z,991.84
2017-11-05T15:42:28.879Z,991.88
2017-11-05T15:43:28.876Z,991.85
2017-11-05T15:44:28.873Z,991.91
2017-11-05T15:45:28.868Z,991.93
2017-11-05T15:46:28.864Z,992.00
2017-11-05T15:47:28.861Z,992.07
2017-11-05T15:48:28.856Z,992.03
2017-11-05T15:49:28.853Z,992.05
2017-11-05T15:50:28.864Z,992.06
2017-11-05T15:51:28.844Z,992.10
2017-11-05T15:52:28.841Z,992.02
2017-11-05T15:53:28.837Z,992.10
2017-11-05T15:54:28.834Z,992.13